sensor_id;sensor_type;location;lat;lon;timestamp;temperature;humidity
7155;DHT22;3619;53.784;10.440;2023-05-07T00:00:48;8.80;99.90
7155;DHT22;3619;53.784;10.440;2023-05-07T00:03:15;8.80;99.90
7155;DHT22;3619;53.784;10.440;2023-05-07T00:05:42;8.80;99.90
7155;DHT22;3619;53.784;10.440;2023-05-07T00:08:08;8.80;99.90
7155;DHT22;3619;53.784;10.440;2023-05-07T00:10:36;8.70;99.90
7155;DHT22;3619;53.784;10.440;2023-05-07T00:13:03;8.80;99.90
7155;DHT22;3619;53.784;10.440;2023-05-07T00:15:30;8.80;99.90
7155;DHT22;3619;53.784;10.440;2023-05-07T00:17:57;8.80;99.90
7155;DHT22;3619;53.784;10.440;2023-05-07T00:20:26;8.80;99.90
7155;DHT22;3619;53.784;10.440;2023-05-07T00:22:52;8.80;99.90
7155;DHT22;3619;53.784;10.440;2023-05-07T00:25:19;8.80;99.90
7155;DHT22;3619;53.784;10.440;2023-05-07T00:27:47;8.80;99.90
7155;DHT22;3619;53.784;10.440;2023-05-07T00:30:14;8.80;99.90
7155;DHT22;3619;53.784;10.440;2023-05-07T00:32:41;8.80;99.90
7155;DHT22;3619;53.784;10.440;2023-05-07T00:35:11;8.70;99.90
7155;DHT22;3619;53.784;10.440;2023-05-07T00:37:38;8.70;99.90
7155;DHT22;3619;53.784;10.440;2023-05-07T00:40:06;8.70;99.90
7155;DHT22;3619;53.784;10.440;2023-05-07T00:42:33;8.70;99.90
7155;DHT22;3619;53.784;10.440;2023-05-07T00:45:02;8.70;99.90
7155;DHT22;3619;53.784;10.440;2023-05-07T00:47:28;8.70;99.90
7155;DHT22;3619;53.784;10.440;2023-05-07T00:49:57;8.70;99.90
7155;DHT22;3619;53.784;10.440;2023-05-07T00:52:25;8.70;99.90
7155;DHT22;3619;53.784;10.440;2023-05-07T00:54:53;8.70;99.90
7155;DHT22;3619;53.784;10.440;2023-05-07T00:57:21;8.70;99.90
7155;DHT22;3619;53.784;10.440;2023-05-07T00:59:48;8.70;99.90
7155;DHT22;3619;53.784;10.440;2023-05-07T01:02:17;8.70;99.90
7155;DHT22;3619;53.784;10.440;2023-05-07T01:04:44;8.70;99.90
7155;DHT22;3619;53.784;10.440;2023-05-07T01:07:11;8.70;99.90
7155;DHT22;3619;53.784;10.440;2023-05-07T01:09:37;8.70;99.90
7155;DHT22;3619;53.784;10.440;2023-05-07T01:12:05;8.70;99.90
7155;DHT22;3619;53.784;10.440;2023-05-07T01:14:33;8.70;99.90
7155;DHT22;3619;53.784;10.440;2023-05-07T01:17:00;8.70;99.90
7155;DHT22;3619;53.784;10.440;2023-05-07T01:19:29;8.60;99.90
7155;DHT22;3619;53.784;10.440;2023-05-07T01:22:01;8.60;99.90
7155;DHT22;3619;53.784;10.440;2023-05-07T01:24:31;8.60;99.90
7155;DHT22;3619;53.784;10.440;2023-05-07T01:26:58;8.60;99.90
7155;DHT22;3619;53.784;10.440;2023-05-07T01:29:28;8.60;99.90
7155;DHT22;3619;53.784;10.440;2023-05-07T01:31:57;8.50;99.90
7155;DHT22;3619;53.784;10.440;2023-05-07T01:34:25;8.60;99.90
7155;DHT22;3619;53.784;10.440;2023-05-07T01:36:53;8.60;99.90
7155;DHT22;3619;53.784;10.440;2023-05-07T01:39:24;8.50;99.90
7155;DHT22;3619;53.784;10.440;2023-05-07T01:41:53;8.50;99.90
7155;DHT22;3619;53.784;10.440;2023-05-07T01:44:20;8.50;99.90
7155;DHT22;3619;53.784;10.440;2023-05-07T01:46:47;8.60;99.90
7155;DHT22;3619;53.784;10.440;2023-05-07T01:49:15;8.50;99.90
7155;DHT22;3619;53.784;10.440;2023-05-07T01:51:43;8.50;99.90
7155;DHT22;3619;53.784;10.440;2023-05-07T01:54:10;8.50;99.90
7155;DHT22;3619;53.784;10.440;2023-05-07T01:56:36;8.50;99.90
7155;DHT22;3619;53.784;10.440;2023-05-07T01:59:05;8.50;99.90
7155;DHT22;3619;53.784;10.440;2023-05-07T02:01:31;8.50;99.90
7155;DHT22;3619;53.784;10.440;2023-05-07T02:03:58;8.50;99.90
7155;DHT22;3619;53.784;10.440;2023-05-07T02:06:25;8.50;99.90
7155;DHT22;3619;53.784;10.440;2023-05-07T02:08:52;8.60;99.90
7155;DHT22;3619;53.784;10.440;2023-05-07T02:11:19;8.60;99.90
7155;DHT22;3619;53.784;10.440;2023-05-07T02:13:46;8.50;99.90
7155;DHT22;3619;53.784;10.440;2023-05-07T02:16:14;8.50;99.90
7155;DHT22;3619;53.784;10.440;2023-05-07T02:18:41;8.50;99.90
7155;DHT22;3619;53.784;10.440;2023-05-07T02:21:08;8.40;99.90
7155;DHT22;3619;53.784;10.440;2023-05-07T02:23:34;8.50;99.90
7155;DHT22;3619;53.784;10.440;2023-05-07T02:26:01;8.50;99.90
7155;DHT22;3619;53.784;10.440;2023-05-07T02:28:28;8.50;99.90
7155;DHT22;3619;53.784;10.440;2023-05-07T02:30:55;8.50;99.90
7155;DHT22;3619;53.784;10.440;2023-05-07T02:33:27;8.50;99.90
7155;DHT22;3619;53.784;10.440;2023-05-07T02:35:54;8.50;99.90
7155;DHT22;3619;53.784;10.440;2023-05-07T02:38:21;8.50;99.90
7155;DHT22;3619;53.784;10.440;2023-05-07T02:40:48;8.50;99.90
7155;DHT22;3619;53.784;10.440;2023-05-07T02:43:14;8.50;99.90
7155;DHT22;3619;53.784;10.440;2023-05-07T02:45:41;8.50;99.90
7155;DHT22;3619;53.784;10.440;2023-05-07T02:48:09;8.50;99.90
7155;DHT22;3619;53.784;10.440;2023-05-07T02:50:37;8.50;99.90
7155;DHT22;3619;53.784;10.440;2023-05-07T02:53:03;8.50;99.90
7155;DHT22;3619;53.784;10.440;2023-05-07T02:55:30;8.50;99.90
7155;DHT22;3619;53.784;10.440;2023-05-07T02:57:57;8.50;99.90
7155;DHT22;3619;53.784;10.440;2023-05-07T03:00:24;8.60;99.90
7155;DHT22;3619;53.784;10.440;2023-05-07T03:02:51;8.50;99.90
7155;DHT22;3619;53.784;10.440;2023-05-07T03:05:18;8.50;99.90
7155;DHT22;3619;53.784;10.440;2023-05-07T03:07:48;8.60;99.90
7155;DHT22;3619;53.784;10.440;2023-05-07T03:10:15;8.60;99.90
7155;DHT22;3619;53.784;10.440;2023-05-07T03:12:42;8.60;99.90
7155;DHT22;3619;53.784;10.440;2023-05-07T03:15:11;8.50;99.90
7155;DHT22;3619;53.784;10.440;2023-05-07T03:17:39;8.50;99.90
7155;DHT22;3619;53.784;10.440;2023-05-07T03:20:06;8.50;99.90
7155;DHT22;3619;53.784;10.440;2023-05-07T03:22:34;8.50;99.90
7155;DHT22;3619;53.784;10.440;2023-05-07T03:25:03;8.60;99.90
7155;DHT22;3619;53.784;10.440;2023-05-07T03:27:30;8.60;99.90
7155;DHT22;3619;53.784;10.440;2023-05-07T03:29:57;8.60;99.90
7155;DHT22;3619;53.784;10.440;2023-05-07T03:32:23;8.60;99.90
7155;DHT22;3619;53.784;10.440;2023-05-07T03:34:51;8.60;99.90
7155;DHT22;3619;53.784;10.440;2023-05-07T03:37:18;8.60;99.90
7155;DHT22;3619;53.784;10.440;2023-05-07T03:39:45;8.60;99.90
7155;DHT22;3619;53.784;10.440;2023-05-07T03:42:13;8.50;99.90
7155;DHT22;3619;53.784;10.440;2023-05-07T03:44:40;8.50;99.90
7155;DHT22;3619;53.784;10.440;2023-05-07T03:47:06;8.50;99.90
7155;DHT22;3619;53.784;10.440;2023-05-07T03:49:34;8.50;99.90
7155;DHT22;3619;53.784;10.440;2023-05-07T03:52:01;8.50;99.90
7155;DHT22;3619;53.784;10.440;2023-05-07T03:54:30;8.60;99.90
7155;DHT22;3619;53.784;10.440;2023-05-07T03:56:56;8.50;99.90
7155;DHT22;3619;53.784;10.440;2023-05-07T03:59:25;8.50;99.90
7155;DHT22;3619;53.784;10.440;2023-05-07T04:01:54;8.50;99.90
7155;DHT22;3619;53.784;10.440;2023-05-07T04:04:20;8.60;99.90
7155;DHT22;3619;53.784;10.440;2023-05-07T04:06:47;8.50;99.90
7155;DHT22;3619;53.784;10.440;2023-05-07T04:09:14;8.50;99.90
7155;DHT22;3619;53.784;10.440;2023-05-07T04:11:41;8.50;99.90
7155;DHT22;3619;53.784;10.440;2023-05-07T04:14:07;8.50;99.90
7155;DHT22;3619;53.784;10.440;2023-05-07T04:16:36;8.50;99.90
7155;DHT22;3619;53.784;10.440;2023-05-07T04:19:02;8.50;99.90
7155;DHT22;3619;53.784;10.440;2023-05-07T04:21:29;8.50;99.90
7155;DHT22;3619;53.784;10.440;2023-05-07T04:23:56;8.50;99.90
7155;DHT22;3619;53.784;10.440;2023-05-07T04:26:23;8.50;99.90
7155;DHT22;3619;53.784;10.440;2023-05-07T04:28:50;8.60;99.90
7155;DHT22;3619;53.784;10.440;2023-05-07T04:31:16;8.50;99.90
7155;DHT22;3619;53.784;10.440;2023-05-07T04:33:44;8.50;99.90
7155;DHT22;3619;53.784;10.440;2023-05-07T04:36:11;8.50;99.90
7155;DHT22;3619;53.784;10.440;2023-05-07T04:38:38;8.50;99.90
7155;DHT22;3619;53.784;10.440;2023-05-07T04:41:06;8.50;99.90
7155;DHT22;3619;53.784;10.440;2023-05-07T04:43:33;8.50;99.90
7155;DHT22;3619;53.784;10.440;2023-05-07T04:46:00;8.60;99.90
7155;DHT22;3619;53.784;10.440;2023-05-07T04:48:26;8.60;99.90
7155;DHT22;3619;53.784;10.440;2023-05-07T04:50:56;8.60;99.90
7155;DHT22;3619;53.784;10.440;2023-05-07T04:53:23;8.60;99.90
7155;DHT22;3619;53.784;10.440;2023-05-07T04:55:54;8.70;99.90
7155;DHT22;3619;53.784;10.440;2023-05-07T04:58:22;8.60;99.90
7155;DHT22;3619;53.784;10.440;2023-05-07T05:00:49;8.70;99.90
7155;DHT22;3619;53.784;10.440;2023-05-07T05:03:15;8.70;99.90
7155;DHT22;3619;53.784;10.440;2023-05-07T05:05:42;8.70;99.90
7155;DHT22;3619;53.784;10.440;2023-05-07T05:08:10;8.70;99.90
7155;DHT22;3619;53.784;10.440;2023-05-07T05:10:37;8.70;99.90
7155;DHT22;3619;53.784;10.440;2023-05-07T05:13:04;8.80;99.90
7155;DHT22;3619;53.784;10.440;2023-05-07T05:15:31;8.80;99.90
7155;DHT22;3619;53.784;10.440;2023-05-07T05:17:57;8.80;99.90
7155;DHT22;3619;53.784;10.440;2023-05-07T05:20:24;8.80;99.90
7155;DHT22;3619;53.784;10.440;2023-05-07T05:22:51;8.80;99.90
7155;DHT22;3619;53.784;10.440;2023-05-07T05:25:19;8.90;99.90
7155;DHT22;3619;53.784;10.440;2023-05-07T05:27:46;8.90;99.90
7155;DHT22;3619;53.784;10.440;2023-05-07T05:30:13;8.90;99.90
7155;DHT22;3619;53.784;10.440;2023-05-07T05:32:40;8.90;99.90
7155;DHT22;3619;53.784;10.440;2023-05-07T05:35:08;8.80;99.90
7155;DHT22;3619;53.784;10.440;2023-05-07T05:37:35;8.80;99.90
7155;DHT22;3619;53.784;10.440;2023-05-07T05:40:02;8.80;99.90
7155;DHT22;3619;53.784;10.440;2023-05-07T05:42:30;8.90;99.90
7155;DHT22;3619;53.784;10.440;2023-05-07T05:44:57;8.90;99.90
7155;DHT22;3619;53.784;10.440;2023-05-07T05:47:24;8.90;99.90
7155;DHT22;3619;53.784;10.440;2023-05-07T05:49:51;8.90;99.90
7155;DHT22;3619;53.784;10.440;2023-05-07T05:52:18;8.80;99.90
7155;DHT22;3619;53.784;10.440;2023-05-07T05:54:45;8.90;99.90
7155;DHT22;3619;53.784;10.440;2023-05-07T05:57:12;8.90;99.90
7155;DHT22;3619;53.784;10.440;2023-05-07T05:59:40;9.00;99.90
7155;DHT22;3619;53.784;10.440;2023-05-07T06:02:07;9.00;99.90
7155;DHT22;3619;53.784;10.440;2023-05-07T06:04:34;9.10;99.90
7155;DHT22;3619;53.784;10.440;2023-05-07T06:07:01;9.10;99.90
7155;DHT22;3619;53.784;10.440;2023-05-07T06:09:27;9.10;99.90
7155;DHT22;3619;53.784;10.440;2023-05-07T06:11:54;9.10;99.90
7155;DHT22;3619;53.784;10.440;2023-05-07T06:14:21;9.10;99.90
7155;DHT22;3619;53.784;10.440;2023-05-07T06:16:49;9.10;99.90
7155;DHT22;3619;53.784;10.440;2023-05-07T06:19:16;9.10;99.90
7155;DHT22;3619;53.784;10.440;2023-05-07T06:21:49;9.10;99.90
7155;DHT22;3619;53.784;10.440;2023-05-07T06:24:16;9.20;99.90
7155;DHT22;3619;53.784;10.440;2023-05-07T06:26:42;9.30;99.90
7155;DHT22;3619;53.784;10.440;2023-05-07T06:29:09;9.40;99.90
7155;DHT22;3619;53.784;10.440;2023-05-07T06:31:36;9.40;99.90
7155;DHT22;3619;53.784;10.440;2023-05-07T06:34:04;9.40;99.90
7155;DHT22;3619;53.784;10.440;2023-05-07T06:36:31;9.40;99.90
7155;DHT22;3619;53.784;10.440;2023-05-07T06:38:58;9.40;99.90
7155;DHT22;3619;53.784;10.440;2023-05-07T06:41:24;9.50;99.90
7155;DHT22;3619;53.784;10.440;2023-05-07T06:43:51;9.50;99.90
7155;DHT22;3619;53.784;10.440;2023-05-07T06:46:18;9.60;99.90
7155;DHT22;3619;53.784;10.440;2023-05-07T06:48:45;9.60;99.90
7155;DHT22;3619;53.784;10.440;2023-05-07T06:51:13;9.60;99.90
7155;DHT22;3619;53.784;10.440;2023-05-07T06:53:40;9.70;99.90
7155;DHT22;3619;53.784;10.440;2023-05-07T06:56:07;9.70;99.90
7155;DHT22;3619;53.784;10.440;2023-05-07T06:58:33;9.70;99.90
7155;DHT22;3619;53.784;10.440;2023-05-07T07:01:00;9.70;99.90
7155;DHT22;3619;53.784;10.440;2023-05-07T07:03:27;9.80;99.90
7155;DHT22;3619;53.784;10.440;2023-05-07T07:05:54;9.80;99.90
7155;DHT22;3619;53.784;10.440;2023-05-07T07:08:22;9.90;99.90
7155;DHT22;3619;53.784;10.440;2023-05-07T07:10:49;10.00;99.90
7155;DHT22;3619;53.784;10.440;2023-05-07T07:13:16;10.00;99.90
7155;DHT22;3619;53.784;10.440;2023-05-07T07:15:46;10.00;99.90
7155;DHT22;3619;53.784;10.440;2023-05-07T07:18:12;10.10;99.90
7155;DHT22;3619;53.784;10.440;2023-05-07T07:20:39;10.10;99.90
7155;DHT22;3619;53.784;10.440;2023-05-07T07:23:06;10.10;99.90
7155;DHT22;3619;53.784;10.440;2023-05-07T07:25:34;10.00;99.90
7155;DHT22;3619;53.784;10.440;2023-05-07T07:28:01;10.00;99.90
7155;DHT22;3619;53.784;10.440;2023-05-07T07:30:28;10.20;99.90
7155;DHT22;3619;53.784;10.440;2023-05-07T07:32:55;10.20;99.90
7155;DHT22;3619;53.784;10.440;2023-05-07T07:35:27;10.20;99.90
7155;DHT22;3619;53.784;10.440;2023-05-07T07:37:57;10.30;99.90
7155;DHT22;3619;53.784;10.440;2023-05-07T07:40:24;10.30;99.90
7155;DHT22;3619;53.784;10.440;2023-05-07T07:42:53;10.40;99.90
7155;DHT22;3619;53.784;10.440;2023-05-07T07:45:20;10.50;99.90
7155;DHT22;3619;53.784;10.440;2023-05-07T07:47:50;10.70;99.90
7155;DHT22;3619;53.784;10.440;2023-05-07T07:50:18;10.60;99.90
7155;DHT22;3619;53.784;10.440;2023-05-07T07:52:44;10.70;99.90
7155;DHT22;3619;53.784;10.440;2023-05-07T07:55:11;10.80;99.90
7155;DHT22;3619;53.784;10.440;2023-05-07T07:57:38;10.80;99.90
7155;DHT22;3619;53.784;10.440;2023-05-07T08:00:08;10.70;99.90
7155;DHT22;3619;53.784;10.440;2023-05-07T08:02:35;10.70;99.90
7155;DHT22;3619;53.784;10.440;2023-05-07T08:05:01;10.70;99.90
7155;DHT22;3619;53.784;10.440;2023-05-07T08:07:28;10.80;99.90
7155;DHT22;3619;53.784;10.440;2023-05-07T08:09:55;10.80;99.90
7155;DHT22;3619;53.784;10.440;2023-05-07T08:12:22;10.70;99.90
7155;DHT22;3619;53.784;10.440;2023-05-07T08:14:49;10.60;99.90
7155;DHT22;3619;53.784;10.440;2023-05-07T08:17:17;10.60;99.90
7155;DHT22;3619;53.784;10.440;2023-05-07T08:19:43;10.70;99.90
7155;DHT22;3619;53.784;10.440;2023-05-07T08:22:10;10.90;99.90
7155;DHT22;3619;53.784;10.440;2023-05-07T08:24:37;10.80;99.90
7155;DHT22;3619;53.784;10.440;2023-05-07T08:27:04;10.80;99.90
7155;DHT22;3619;53.784;10.440;2023-05-07T08:29:31;10.90;99.90
7155;DHT22;3619;53.784;10.440;2023-05-07T08:31:57;11.00;99.90
7155;DHT22;3619;53.784;10.440;2023-05-07T08:34:26;11.10;99.90
7155;DHT22;3619;53.784;10.440;2023-05-07T08:36:52;11.00;99.90
7155;DHT22;3619;53.784;10.440;2023-05-07T08:39:19;10.80;99.90
7155;DHT22;3619;53.784;10.440;2023-05-07T08:41:48;10.80;99.90
7155;DHT22;3619;53.784;10.440;2023-05-07T08:44:16;10.90;99.90
7155;DHT22;3619;53.784;10.440;2023-05-07T08:46:45;11.00;99.90
7155;DHT22;3619;53.784;10.440;2023-05-07T08:49:13;11.00;99.90
7155;DHT22;3619;53.784;10.440;2023-05-07T08:51:42;11.00;99.90
7155;DHT22;3619;53.784;10.440;2023-05-07T08:54:11;11.00;99.90
7155;DHT22;3619;53.784;10.440;2023-05-07T08:56:39;11.10;99.90
7155;DHT22;3619;53.784;10.440;2023-05-07T08:59:06;11.20;99.90
7155;DHT22;3619;53.784;10.440;2023-05-07T09:01:33;11.40;99.90
7155;DHT22;3619;53.784;10.440;2023-05-07T09:04:01;11.70;99.90
7155;DHT22;3619;53.784;10.440;2023-05-07T09:06:28;11.80;99.90
7155;DHT22;3619;53.784;10.440;2023-05-07T09:08:56;12.20;99.90
7155;DHT22;3619;53.784;10.440;2023-05-07T09:11:24;12.30;99.90
7155;DHT22;3619;53.784;10.440;2023-05-07T09:13:54;12.10;99.90
7155;DHT22;3619;53.784;10.440;2023-05-07T09:16:22;11.90;99.90
7155;DHT22;3619;53.784;10.440;2023-05-07T09:18:51;12.00;99.90
7155;DHT22;3619;53.784;10.440;2023-05-07T09:21:20;11.90;99.90
7155;DHT22;3619;53.784;10.440;2023-05-07T09:23:49;12.20;99.90
7155;DHT22;3619;53.784;10.440;2023-05-07T09:26:19;12.40;99.90
7155;DHT22;3619;53.784;10.440;2023-05-07T09:28:47;12.60;99.90
7155;DHT22;3619;53.784;10.440;2023-05-07T09:31:15;12.80;99.90
7155;DHT22;3619;53.784;10.440;2023-05-07T09:33:42;12.80;99.90
7155;DHT22;3619;53.784;10.440;2023-05-07T09:36:09;12.70;99.90
7155;DHT22;3619;53.784;10.440;2023-05-07T09:38:37;12.70;99.90
7155;DHT22;3619;53.784;10.440;2023-05-07T09:41:05;12.60;99.90
7155;DHT22;3619;53.784;10.440;2023-05-07T09:43:34;12.30;99.90
7155;DHT22;3619;53.784;10.440;2023-05-07T09:46:08;12.40;99.90
7155;DHT22;3619;53.784;10.440;2023-05-07T09:48:37;12.30;99.90
7155;DHT22;3619;53.784;10.440;2023-05-07T09:51:15;12.40;99.90
7155;DHT22;3619;53.784;10.440;2023-05-07T09:53:52;12.40;99.90
7155;DHT22;3619;53.784;10.440;2023-05-07T09:56:20;12.60;99.90
7155;DHT22;3619;53.784;10.440;2023-05-07T09:58:49;13.00;99.90
7155;DHT22;3619;53.784;10.440;2023-05-07T10:01:19;13.20;99.90
7155;DHT22;3619;53.784;10.440;2023-05-07T10:03:49;13.20;99.90
7155;DHT22;3619;53.784;10.440;2023-05-07T10:06:16;13.20;99.90
7155;DHT22;3619;53.784;10.440;2023-05-07T10:08:44;13.10;99.90
7155;DHT22;3619;53.784;10.440;2023-05-07T10:11:11;13.00;99.90
7155;DHT22;3619;53.784;10.440;2023-05-07T10:13:38;13.10;99.90
7155;DHT22;3619;53.784;10.440;2023-05-07T10:16:07;13.20;99.90
7155;DHT22;3619;53.784;10.440;2023-05-07T10:18:34;13.00;99.90
7155;DHT22;3619;53.784;10.440;2023-05-07T10:21:04;13.30;99.90
7155;DHT22;3619;53.784;10.440;2023-05-07T10:23:33;13.40;99.90
7155;DHT22;3619;53.784;10.440;2023-05-07T10:26:03;13.70;99.90
7155;DHT22;3619;53.784;10.440;2023-05-07T10:28:33;14.00;99.90
7155;DHT22;3619;53.784;10.440;2023-05-07T10:31:16;14.00;99.90
7155;DHT22;3619;53.784;10.440;2023-05-07T10:33:48;14.00;99.90
7155;DHT22;3619;53.784;10.440;2023-05-07T10:36:17;13.80;99.90
7155;DHT22;3619;53.784;10.440;2023-05-07T10:38:45;13.80;99.90
7155;DHT22;3619;53.784;10.440;2023-05-07T10:41:12;14.10;99.90
7155;DHT22;3619;53.784;10.440;2023-05-07T10:43:42;14.20;99.90
7155;DHT22;3619;53.784;10.440;2023-05-07T10:46:17;14.70;99.90
7155;DHT22;3619;53.784;10.440;2023-05-07T10:49:06;15.10;99.90
7155;DHT22;3619;53.784;10.440;2023-05-07T10:51:33;15.30;99.90
7155;DHT22;3619;53.784;10.440;2023-05-07T10:54:20;15.50;99.90
7155;DHT22;3619;53.784;10.440;2023-05-07T10:56:47;15.40;99.90
7155;DHT22;3619;53.784;10.440;2023-05-07T10:59:35;15.20;99.90
7155;DHT22;3619;53.784;10.440;2023-05-07T11:02:10;14.80;99.90
7155;DHT22;3619;53.784;10.440;2023-05-07T11:04:39;15.20;99.90
7155;DHT22;3619;53.784;10.440;2023-05-07T11:07:31;15.60;99.90
7155;DHT22;3619;53.784;10.440;2023-05-07T11:10:00;15.70;99.90
7155;DHT22;3619;53.784;10.440;2023-05-07T11:12:48;15.60;99.90
7155;DHT22;3619;53.784;10.440;2023-05-07T11:15:36;15.40;99.90
7155;DHT22;3619;53.784;10.440;2023-05-07T11:18:05;15.20;99.90
7155;DHT22;3619;53.784;10.440;2023-05-07T11:20:52;15.10;99.90
7155;DHT22;3619;53.784;10.440;2023-05-07T11:23:54;15.00;99.90
7155;DHT22;3619;53.784;10.440;2023-05-07T11:26:22;15.20;99.90
7155;DHT22;3619;53.784;10.440;2023-05-07T11:28:49;15.50;99.90
7155;DHT22;3619;53.784;10.440;2023-05-07T11:31:21;15.00;99.90
7155;DHT22;3619;53.784;10.440;2023-05-07T11:33:51;14.90;99.90
7155;DHT22;3619;53.784;10.440;2023-05-07T11:36:18;14.70;99.90
7155;DHT22;3619;53.784;10.440;2023-05-07T11:38:46;14.50;99.90
7155;DHT22;3619;53.784;10.440;2023-05-07T11:41:13;14.30;99.90
7155;DHT22;3619;53.784;10.440;2023-05-07T11:43:54;14.40;99.90
7155;DHT22;3619;53.784;10.440;2023-05-07T11:46:23;15.00;99.90
7155;DHT22;3619;53.784;10.440;2023-05-07T11:48:51;15.30;99.90
7155;DHT22;3619;53.784;10.440;2023-05-07T11:51:22;15.80;99.90
7155;DHT22;3619;53.784;10.440;2023-05-07T11:53:50;16.30;99.90
7155;DHT22;3619;53.784;10.440;2023-05-07T11:56:17;16.60;99.90
7155;DHT22;3619;53.784;10.440;2023-05-07T11:58:46;16.90;99.90
7155;DHT22;3619;53.784;10.440;2023-05-07T12:01:14;16.40;99.90
7155;DHT22;3619;53.784;10.440;2023-05-07T12:03:43;16.00;99.90
7155;DHT22;3619;53.784;10.440;2023-05-07T12:06:13;15.30;99.90
7155;DHT22;3619;53.784;10.440;2023-05-07T12:08:41;15.30;99.90
7155;DHT22;3619;53.784;10.440;2023-05-07T12:11:09;15.40;99.90
7155;DHT22;3619;53.784;10.440;2023-05-07T12:13:37;15.40;99.90
7155;DHT22;3619;53.784;10.440;2023-05-07T12:16:05;15.80;99.90
7155;DHT22;3619;53.784;10.440;2023-05-07T12:18:34;16.00;99.90
7155;DHT22;3619;53.784;10.440;2023-05-07T12:21:01;16.20;99.90
7155;DHT22;3619;53.784;10.440;2023-05-07T12:23:30;16.10;99.90
7155;DHT22;3619;53.784;10.440;2023-05-07T12:25:57;16.20;99.90
7155;DHT22;3619;53.784;10.440;2023-05-07T12:28:23;15.60;99.90
7155;DHT22;3619;53.784;10.440;2023-05-07T12:30:51;15.50;99.90
7155;DHT22;3619;53.784;10.440;2023-05-07T12:33:23;15.70;99.90
7155;DHT22;3619;53.784;10.440;2023-05-07T12:35:50;16.10;99.90
7155;DHT22;3619;53.784;10.440;2023-05-07T12:38:17;16.00;99.90
7155;DHT22;3619;53.784;10.440;2023-05-07T12:40:47;16.00;99.90
7155;DHT22;3619;53.784;10.440;2023-05-07T12:43:16;15.90;99.90
7155;DHT22;3619;53.784;10.440;2023-05-07T12:45:44;16.10;99.90
7155;DHT22;3619;53.784;10.440;2023-05-07T12:48:12;16.30;99.90
7155;DHT22;3619;53.784;10.440;2023-05-07T12:50:39;16.90;99.90
7155;DHT22;3619;53.784;10.440;2023-05-07T12:53:06;16.80;99.90
7155;DHT22;3619;53.784;10.440;2023-05-07T12:55:40;16.10;99.90
7155;DHT22;3619;53.784;10.440;2023-05-07T12:58:15;16.10;99.90
7155;DHT22;3619;53.784;10.440;2023-05-07T13:00:42;16.30;99.90
7155;DHT22;3619;53.784;10.440;2023-05-07T13:03:09;16.10;99.90
7155;DHT22;3619;53.784;10.440;2023-05-07T13:05:36;16.30;99.90
7155;DHT22;3619;53.784;10.440;2023-05-07T13:08:03;16.80;99.90
7155;DHT22;3619;53.784;10.440;2023-05-07T13:10:30;16.70;99.90
7155;DHT22;3619;53.784;10.440;2023-05-07T13:12:58;16.60;99.90
7155;DHT22;3619;53.784;10.440;2023-05-07T13:15:26;16.40;99.90
7155;DHT22;3619;53.784;10.440;2023-05-07T13:17:53;16.50;99.90
7155;DHT22;3619;53.784;10.440;2023-05-07T13:20:21;16.10;99.90
7155;DHT22;3619;53.784;10.440;2023-05-07T13:22:48;16.10;99.90
7155;DHT22;3619;53.784;10.440;2023-05-07T13:25:15;15.70;99.90
7155;DHT22;3619;53.784;10.440;2023-05-07T13:27:42;15.80;99.90
7155;DHT22;3619;53.784;10.440;2023-05-07T13:30:09;15.80;99.90
7155;DHT22;3619;53.784;10.440;2023-05-07T13:32:37;15.60;99.90
7155;DHT22;3619;53.784;10.440;2023-05-07T13:35:05;15.70;99.90
7155;DHT22;3619;53.784;10.440;2023-05-07T13:37:32;15.70;99.90
7155;DHT22;3619;53.784;10.440;2023-05-07T13:39:59;15.80;99.90
7155;DHT22;3619;53.784;10.440;2023-05-07T13:42:25;15.90;99.90
7155;DHT22;3619;53.784;10.440;2023-05-07T13:44:52;16.10;99.90
7155;DHT22;3619;53.784;10.440;2023-05-07T13:47:19;16.20;99.90
7155;DHT22;3619;53.784;10.440;2023-05-07T13:49:47;16.20;99.90
7155;DHT22;3619;53.784;10.440;2023-05-07T13:52:15;16.20;99.90
7155;DHT22;3619;53.784;10.440;2023-05-07T13:54:42;16.40;99.90
7155;DHT22;3619;53.784;10.440;2023-05-07T13:57:09;16.70;99.90
7155;DHT22;3619;53.784;10.440;2023-05-07T13:59:36;17.20;99.90
7155;DHT22;3619;53.784;10.440;2023-05-07T14:02:02;17.50;99.90
7155;DHT22;3619;53.784;10.440;2023-05-07T14:04:30;17.60;99.90
7155;DHT22;3619;53.784;10.440;2023-05-07T14:06:58;17.80;99.90
7155;DHT22;3619;53.784;10.440;2023-05-07T14:09:25;18.00;99.90
7155;DHT22;3619;53.784;10.440;2023-05-07T14:11:52;17.70;99.90
7155;DHT22;3619;53.784;10.440;2023-05-07T14:14:19;17.70;99.90
7155;DHT22;3619;53.784;10.440;2023-05-07T14:16:47;17.60;99.90
7155;DHT22;3619;53.784;10.440;2023-05-07T14:19:14;17.10;99.90
7155;DHT22;3619;53.784;10.440;2023-05-07T14:21:41;16.70;99.90
7155;DHT22;3619;53.784;10.440;2023-05-07T14:24:10;16.60;99.90
7155;DHT22;3619;53.784;10.440;2023-05-07T14:26:37;16.80;99.90
7155;DHT22;3619;53.784;10.440;2023-05-07T14:29:04;16.90;99.90
7155;DHT22;3619;53.784;10.440;2023-05-07T14:31:30;16.60;99.90
7155;DHT22;3619;53.784;10.440;2023-05-07T14:33:58;16.90;99.90
7155;DHT22;3619;53.784;10.440;2023-05-07T14:36:25;17.70;99.90
7155;DHT22;3619;53.784;10.440;2023-05-07T14:38:52;18.10;99.90
7155;DHT22;3619;53.784;10.440;2023-05-07T14:41:22;18.60;99.90
7155;DHT22;3619;53.784;10.440;2023-05-07T14:43:49;19.00;99.90
7155;DHT22;3619;53.784;10.440;2023-05-07T14:46:17;18.80;99.90
7155;DHT22;3619;53.784;10.440;2023-05-07T14:48:44;18.40;99.90
7155;DHT22;3619;53.784;10.440;2023-05-07T14:51:12;18.80;99.90
7155;DHT22;3619;53.784;10.440;2023-05-07T14:53:40;18.10;99.90
7155;DHT22;3619;53.784;10.440;2023-05-07T14:56:08;17.70;99.90
7155;DHT22;3619;53.784;10.440;2023-05-07T14:58:36;17.20;99.90
7155;DHT22;3619;53.784;10.440;2023-05-07T15:01:03;17.00;99.90
7155;DHT22;3619;53.784;10.440;2023-05-07T15:03:30;16.90;99.90
7155;DHT22;3619;53.784;10.440;2023-05-07T15:05:57;17.50;99.90
7155;DHT22;3619;53.784;10.440;2023-05-07T15:08:23;18.30;99.90
7155;DHT22;3619;53.784;10.440;2023-05-07T15:10:50;18.50;99.90
7155;DHT22;3619;53.784;10.440;2023-05-07T15:13:17;18.30;99.90
7155;DHT22;3619;53.784;10.440;2023-05-07T15:15:45;18.00;99.90
7155;DHT22;3619;53.784;10.440;2023-05-07T15:18:12;17.70;99.90
7155;DHT22;3619;53.784;10.440;2023-05-07T15:20:39;18.00;99.90
7155;DHT22;3619;53.784;10.440;2023-05-07T15:23:06;18.00;99.90
7155;DHT22;3619;53.784;10.440;2023-05-07T15:25:35;18.00;99.90
7155;DHT22;3619;53.784;10.440;2023-05-07T15:28:02;17.30;99.90
7155;DHT22;3619;53.784;10.440;2023-05-07T15:30:29;16.90;99.90
7155;DHT22;3619;53.784;10.440;2023-05-07T15:32:57;16.70;99.90
7155;DHT22;3619;53.784;10.440;2023-05-07T15:35:25;16.30;99.90
7155;DHT22;3619;53.784;10.440;2023-05-07T15:37:52;16.10;99.90
7155;DHT22;3619;53.784;10.440;2023-05-07T15:40:19;16.00;99.90
7155;DHT22;3619;53.784;10.440;2023-05-07T15:42:48;16.30;99.90
7155;DHT22;3619;53.784;10.440;2023-05-07T15:45:15;16.40;99.90
7155;DHT22;3619;53.784;10.440;2023-05-07T15:47:42;16.50;99.90
7155;DHT22;3619;53.784;10.440;2023-05-07T15:50:10;16.30;99.90
7155;DHT22;3619;53.784;10.440;2023-05-07T15:52:37;16.10;99.90
7155;DHT22;3619;53.784;10.440;2023-05-07T15:55:06;16.20;99.90
7155;DHT22;3619;53.784;10.440;2023-05-07T15:57:33;16.50;99.90